Time;durP1;ratioP1;P1;durP2;ratioP2;P2;SDS_P1;SDS_P2;PMS_P1;PMS_P2;Temp;Humidity;BMP_temperature;BMP_pressure;BME280_temperature;BME280_humidity;BME280_pressure;Samples;Min_cycle;Max_cycle;Signal;HPM_P1;HPM_P2
2021/06/20 00:00:24;;;;;;;6.80;6.13;;;;;;;;;;5056272;28;20270;-48
2021/06/20 00:02:50;;;;;;;9.40;6.35;;;;;;;;;;5050218;28;20187;-47
2021/06/20 00:05:18;;;;;;;6.93;6.15;;;;;;;;;;5036638;28;20194;-47
2021/06/20 00:07:45;;;;;;;6.88;6.20;;;;;;;;;;5046452;28;20218;-47
2021/06/20 00:10:11;;;;;;;8.07;5.95;;;;;;;;;;5056214;28;20188;-47
2021/06/20 00:12:38;;;;;;;7.57;6.63;;;;;;;;;;5055979;28;20186;-48
2021/06/20 00:15:07;;;;;;;6.30;5.70;;;;;;;;;;5056149;28;20483;-47
2021/06/20 00:17:33;;;;;;;7.20;6.43;;;;;;;;;;5047831;28;20191;-47
2021/06/20 00:19:59;;;;;;;9.32;6.80;;;;;;;;;;5040397;28;20273;-47
2021/06/20 00:22:25;;;;;;;7.40;6.70;;;;;;;;;;5055740;28;20199;-47
2021/06/20 00:24:51;;;;;;;6.82;6.22;;;;;;;;;;5056048;28;20467;-47
2021/06/20 00:27:17;;;;;;;6.80;6.10;;;;;;;;;;5054771;28;20194;-47
2021/06/20 00:29:43;;;;;;;7.55;6.38;;;;;;;;;;5055341;28;20184;-47
2021/06/20 00:32:09;;;;;;;7.13;6.53;;;;;;;;;;5055792;28;20206;-47
2021/06/20 00:34:35;;;;;;;7.05;6.03;;;;;;;;;;5054579;28;20270;-47
2021/06/20 00:37:01;;;;;;;6.97;6.28;;;;;;;;;;5055731;28;20285;-47
2021/06/20 00:39:27;;;;;;;6.60;5.80;;;;;;;;;;5055583;28;20192;-48
2021/06/20 00:41:53;;;;;;;7.13;6.28;;;;;;;;;;5055825;28;20531;-47
2021/06/20 00:44:19;;;;;;;7.63;6.55;;;;;;;;;;5055311;28;20207;-47
2021/06/20 00:46:45;;;;;;;7.43;6.60;;;;;;;;;;5054873;28;20186;-47
2021/06/20 00:49:11;;;;;;;8.00;6.88;;;;;;;;;;5055432;28;20183;-47
2021/06/20 00:51:37;;;;;;;7.05;6.45;;;;;;;;;;5053735;28;20680;-47
2021/06/20 00:54:03;;;;;;;6.88;6.20;;;;;;;;;;5055434;28;20172;-47
2021/06/20 00:56:29;;;;;;;7.78;6.97;;;;;;;;;;5054643;28;20179;-47
2021/06/20 00:59:02;;;;;;;13.27;6.95;;;;;;;;;;5055016;28;20321;-47
2021/06/20 01:01:31;;;;;;;9.38;7.60;;;;;;;;;;5051710;28;20684;-47
2021/06/20 01:03:58;;;;;;;8.25;6.65;;;;;;;;;;5055274;28;20245;-47
2021/06/20 01:06:24;;;;;;;9.65;7.43;;;;;;;;;;5053698;28;20460;-47
2021/06/20 01:08:50;;;;;;;7.63;6.95;;;;;;;;;;5054547;28;20209;-47
2021/06/20 01:11:17;;;;;;;8.23;6.82;;;;;;;;;;5049412;28;20183;-47
2021/06/20 01:13:44;;;;;;;8.93;6.55;;;;;;;;;;5054411;28;20190;-47
2021/06/20 01:16:10;;;;;;;7.75;7.00;;;;;;;;;;5054238;28;20194;-47
2021/06/20 01:18:36;;;;;;;8.80;6.75;;;;;;;;;;5054864;28;20213;-47
2021/06/20 01:21:02;;;;;;;7.63;6.22;;;;;;;;;;5053561;28;20260;-47
2021/06/20 01:23:28;;;;;;;6.63;6.05;;;;;;;;;;5055038;28;20218;-47
2021/06/20 01:25:55;;;;;;;6.65;6.15;;;;;;;;;;5054162;28;20208;-47
2021/06/20 01:28:26;;;;;;;7.15;6.13;;;;;;;;;;5055096;28;20300;-47
2021/06/20 01:30:58;;;;;;;6.97;6.20;;;;;;;;;;5054160;28;20231;-47
2021/06/20 01:33:24;;;;;;;6.78;6.28;;;;;;;;;;5054032;28;20228;-47
2021/06/20 01:35:50;;;;;;;8.23;6.47;;;;;;;;;;5044339;28;20577;-47
2021/06/20 01:38:16;;;;;;;6.50;5.90;;;;;;;;;;5054332;28;20175;-47
2021/06/20 01:40:42;;;;;;;7.40;6.07;;;;;;;;;;5054337;28;20433;-47
2021/06/20 01:43:08;;;;;;;7.90;6.15;;;;;;;;;;5054585;28;20203;-47
2021/06/20 01:45:36;;;;;;;7.03;6.38;;;;;;;;;;5054212;28;20233;-47
2021/06/20 01:48:03;;;;;;;7.90;6.53;;;;;;;;;;5053114;28;20171;-47
2021/06/20 01:50:30;;;;;;;7.03;6.28;;;;;;;;;;5054263;28;20477;-47
2021/06/20 01:53:03;;;;;;;9.30;6.45;;;;;;;;;;5054166;28;20632;-47
2021/06/20 01:55:29;;;;;;;7.50;6.20;;;;;;;;;;5054814;28;20213;-47
2021/06/20 01:57:55;;;;;;;9.30;6.10;;;;;;;;;;5054174;28;20171;-47
2021/06/20 02:00:21;;;;;;;6.97;6.15;;;;;;;;;;5053707;28;20190;-47
2021/06/20 02:02:47;;;;;;;6.82;6.25;;;;;;;;;;5052768;28;20190;-47
2021/06/20 02:05:14;;;;;;;6.95;6.35;;;;;;;;;;5054567;28;20167;-47
2021/06/20 02:07:40;;;;;;;10.13;6.70;;;;;;;;;;5053640;28;20171;-47
2021/06/20 02:10:08;;;;;;;7.43;6.05;;;;;;;;;;5053978;28;20236;-47
2021/06/20 02:12:34;;;;;;;11.18;6.53;;;;;;;;;;5053950;28;20176;-47
2021/06/20 02:15:00;;;;;;;9.88;6.50;;;;;;;;;;5051978;28;20186;-47
2021/06/20 02:17:27;;;;;;;9.23;6.35;;;;;;;;;;5039782;28;20210;-46
2021/06/20 02:19:54;;;;;;;6.82;5.90;;;;;;;;;;5053877;28;20175;-47
2021/06/20 02:22:20;;;;;;;6.43;5.93;;;;;;;;;;5054414;28;20236;-47
2021/06/20 02:24:46;;;;;;;6.80;6.13;;;;;;;;;;5054377;28;20439;-47
2021/06/20 02:27:13;;;;;;;7.05;6.20;;;;;;;;;;5053537;28;20179;-47
2021/06/20 02:29:40;;;;;;;8.88;6.05;;;;;;;;;;5052814;28;20433;-46
2021/06/20 02:32:06;;;;;;;10.40;6.88;;;;;;;;;;5043666;28;20186;-47
2021/06/20 02:34:32;;;;;;;8.70;6.40;;;;;;;;;;5053780;28;20206;-47
2021/06/20 02:36:58;;;;;;;8.30;6.35;;;;;;;;;;5053705;28;20202;-47
2021/06/20 02:39:24;;;;;;;7.70;6.00;;;;;;;;;;5053778;28;20187;-47
2021/06/20 02:41:50;;;;;;;6.95;5.93;;;;;;;;;;5053988;28;20221;-47
2021/06/20 02:44:19;;;;;;;6.82;6.13;;;;;;;;;;5047389;28;20199;-47
2021/06/20 02:46:45;;;;;;;10.38;6.53;;;;;;;;;;5057594;28;20175;-47
2021/06/20 02:49:11;;;;;;;7.03;6.45;;;;;;;;;;5057435;28;20191;-47
2021/06/20 02:51:38;;;;;;;7.82;6.45;;;;;;;;;;5057662;28;20194;-47
2021/06/20 02:54:04;;;;;;;7.43;6.25;;;;;;;;;;5057505;28;20522;-47
2021/06/20 02:56:30;;;;;;;7.30;6.63;;;;;;;;;;5056927;28;20207;-47
2021/06/20 02:58:56;;;;;;;6.88;5.93;;;;;;;;;;5056602;28;20211;-47
2021/06/20 03:01:22;;;;;;;9.75;6.38;;;;;;;;;;5057219;28;20237;-47
2021/06/20 03:03:48;;;;;;;8.90;6.68;;;;;;;;;;5057626;28;20206;-47
2021/06/20 03:06:15;;;;;;;6.60;5.97;;;;;;;;;;5057467;28;20168;-47
2021/06/20 03:08:41;;;;;;;6.43;5.82;;;;;;;;;;5057594;28;20174;-47
2021/06/20 03:11:07;;;;;;;6.63;6.03;;;;;;;;;;5053642;28;20187;-47
2021/06/20 03:13:33;;;;;;;7.22;6.53;;;;;;;;;;5057005;28;20175;-47
2021/06/20 03:15:59;;;;;;;7.18;6.30;;;;;;;;;;5056749;28;20183;-47
2021/06/20 03:18:25;;;;;;;6.80;5.80;;;;;;;;;;5056728;28;20659;-47
2021/06/20 03:20:51;;;;;;;7.60;5.82;;;;;;;;;;5057175;28;20269;-47
2021/06/20 03:23:17;;;;;;;8.02;6.38;;;;;;;;;;5057506;28;20195;-47
2021/06/20 03:25:43;;;;;;;10.55;6.47;;;;;;;;;;5040160;28;20451;-47
2021/06/20 03:28:09;;;;;;;7.18;6.15;;;;;;;;;;5051976;28;20217;-47
2021/06/20 03:30:35;;;;;;;6.68;6.03;;;;;;;;;;5055692;28;20175;-47
2021/06/20 03:33:01;;;;;;;8.90;6.55;;;;;;;;;;5056941;28;20688;-47
2021/06/20 03:35:28;;;;;;;7.80;6.82;;;;;;;;;;5057295;28;20180;-47
2021/06/20 03:37:54;;;;;;;8.32;6.13;;;;;;;;;;5052691;28;20187;-47
2021/06/20 03:40:21;;;;;;;9.45;6.38;;;;;;;;;;5049240;28;20279;-47
2021/06/20 03:42:46;;;;;;;8.77;5.75;;;;;;;;;;5056318;28;20254;-47
2021/06/20 03:45:12;;;;;;;7.82;6.57;;;;;;;;;;5056768;28;20313;-47
2021/06/20 03:47:39;;;;;;;7.93;6.40;;;;;;;;;;5056059;28;20186;-47
2021/06/20 03:50:06;;;;;;;7.78;6.30;;;;;;;;;;5056578;28;20186;-47
2021/06/20 03:52:32;;;;;;;8.63;6.50;;;;;;;;;;5056243;28;20183;-47
2021/06/20 03:54:58;;;;;;;7.15;6.15;;;;;;;;;;5056518;28;20412;-47
2021/06/20 03:57:24;;;;;;;7.13;6.40;;;;;;;;;;5054815;28;20195;-47
2021/06/20 03:59:51;;;;;;;7.03;6.32;;;;;;;;;;5056433;28;20194;-47
2021/06/20 04:02:17;;;;;;;7.28;5.90;;;;;;;;;;5055883;28;20606;-47
2021/06/20 04:04:44;;;;;;;9.80;6.68;;;;;;;;;;5056288;28;20594;-47
2021/06/20 04:07:12;;;;;;;6.93;6.28;;;;;;;;;;5055831;28;20469;-47
2021/06/20 04:09:41;;;;;;;6.75;6.07;;;;;;;;;;5056134;28;20217;-47
2021/06/20 04:12:07;;;;;;;8.63;6.32;;;;;;;;;;5053195;28;20179;-46
2021/06/20 04:14:33;;;;;;;9.88;6.63;;;;;;;;;;5056228;28;20258;-47
2021/06/20 04:16:59;;;;;;;8.02;6.35;;;;;;;;;;5055673;28;20179;-47
2021/06/20 04:19:25;;;;;;;7.70;7.00;;;;;;;;;;5055414;28;20183;-47
2021/06/20 04:21:51;;;;;;;7.63;6.93;;;;;;;;;;5055923;28;20175;-47
2021/06/20 04:24:17;;;;;;;7.75;7.05;;;;;;;;;;5056320;28;20213;-47
2021/06/20 04:26:43;;;;;;;7.30;6.68;;;;;;;;;;5055405;28;20194;-47
2021/06/20 04:29:10;;;;;;;8.40;7.60;;;;;;;;;;5055322;28;20175;-47
2021/06/20 04:31:36;;;;;;;9.15;7.45;;;;;;;;;;5056235;28;20171;-47
2021/06/20 04:34:02;;;;;;;9.55;7.38;;;;;;;;;;5047384;28;20179;-47
2021/06/20 04:36:28;;;;;;;8.27;7.57;;;;;;;;;;5055451;28;20183;-47
2021/06/20 04:38:54;;;;;;;10.38;7.88;;;;;;;;;;5055801;28;20182;-47
2021/06/20 04:41:22;;;;;;;8.45;7.65;;;;;;;;;;5055272;28;20283;-47
2021/06/20 04:46:30;;;;;;;9.73;7.85;;;;;;;;;;5055284;28;20175;-47
2021/06/20 04:49:01;;;;;;;7.88;7.18;;;;;;;;;;5037706;28;20174;-47
2021/06/20 04:51:28;;;;;;;7.47;6.78;;;;;;;;;;5055418;28;20269;-47
2021/06/20 04:53:54;;;;;;;7.90;7.10;;;;;;;;;;5055619;28;20171;-47
2021/06/20 04:56:20;;;;;;;7.80;6.97;;;;;;;;;;5055184;28;20179;-47
2021/06/20 04:58:46;;;;;;;7.25;6.70;;;;;;;;;;5055197;28;20191;-47
2021/06/20 05:01:12;;;;;;;7.18;6.47;;;;;;;;;;5054523;28;20207;-47
2021/06/20 05:03:38;;;;;;;7.55;6.57;;;;;;;;;;5042640;28;20199;-47
2021/06/20 05:06:04;;;;;;;7.20;6.60;;;;;;;;;;5054381;28;20580;-47
2021/06/20 05:08:30;;;;;;;10.20;6.75;;;;;;;;;;5055296;28;20450;-47
2021/06/20 05:10:56;;;;;;;7.90;7.07;;;;;;;;;;5054796;28;20179;-47
2021/06/20 05:13:22;;;;;;;7.85;6.53;;;;;;;;;;5055439;28;20504;-47
2021/06/20 05:15:48;;;;;;;7.65;6.55;;;;;;;;;;5038113;28;20192;-47
2021/06/20 05:18:14;;;;;;;7.60;6.93;;;;;;;;;;5054720;28;20578;-47
2021/06/20 05:20:41;;;;;;;8.20;6.85;;;;;;;;;;5054843;28;20194;-47
2021/06/20 05:23:07;;;;;;;6.72;6.22;;;;;;;;;;5054819;28;20211;-47
2021/06/20 05:25:33;;;;;;;8.55;6.47;;;;;;;;;;5054927;28;20171;-47
2021/06/20 05:27:59;;;;;;;6.88;6.25;;;;;;;;;;5054925;28;20171;-47
2021/06/20 05:30:25;;;;;;;7.35;6.65;;;;;;;;;;5054525;28;20183;-47
2021/06/20 05:32:53;;;;;;;7.53;6.22;;;;;;;;;;5052205;28;20220;-47
2021/06/20 05:35:19;;;;;;;8.25;6.75;;;;;;;;;;5054520;28;20262;-47
2021/06/20 05:37:45;;;;;;;8.02;6.32;;;;;;;;;;5054507;28;20202;-47
2021/06/20 05:40:11;;;;;;;6.78;6.15;;;;;;;;;;5054595;28;20183;-47
2021/06/20 05:42:37;;;;;;;8.07;6.65;;;;;;;;;;5054740;28;20171;-47
2021/06/20 05:45:04;;;;;;;7.07;6.40;;;;;;;;;;5054395;28;20617;-47
2021/06/20 05:47:30;;;;;;;7.25;6.53;;;;;;;;;;5034476;28;20278;-47
2021/06/20 05:49:56;;;;;;;7.15;5.97;;;;;;;;;;5034457;28;20251;-47
2021/06/20 05:52:22;;;;;;;6.55;5.90;;;;;;;;;;5034951;28;20187;-47
2021/06/20 05:54:51;;;;;;;7.75;6.10;;;;;;;;;;5046143;28;20454;-47
2021/06/20 05:57:20;;;;;;;7.63;6.25;;;;;;;;;;5054209;28;20189;-47
2021/06/20 05:59:46;;;;;;;7.03;6.18;;;;;;;;;;5054350;28;20597;-47
2021/06/20 06:02:12;;;;;;;9.43;6.70;;;;;;;;;;5054547;28;20186;-47
2021/06/20 06:04:39;;;;;;;10.18;6.72;;;;;;;;;;5054572;28;20191;-47
2021/06/20 06:07:05;;;;;;;6.78;6.15;;;;;;;;;;5041338;28;20171;-47
2021/06/20 06:09:31;;;;;;;8.13;6.65;;;;;;;;;;5054446;28;20190;-47
2021/06/20 06:11:57;;;;;;;8.15;6.40;;;;;;;;;;5054126;28;20555;-47
2021/06/20 06:14:23;;;;;;;6.45;5.78;;;;;;;;;;5054312;28;20245;-47
2021/06/20 06:16:50;;;;;;;6.63;6.07;;;;;;;;;;5053853;28;20186;-47
2021/06/20 06:19:16;;;;;;;9.48;6.07;;;;;;;;;;5053792;28;20256;-47
2021/06/20 06:21:43;;;;;;;6.53;5.90;;;;;;;;;;5053768;28;20179;-47
2021/06/20 06:24:09;;;;;;;6.90;6.22;;;;;;;;;;5053590;28;20652;-47
2021/06/20 06:26:35;;;;;;;10.70;6.13;;;;;;;;;;5053633;28;20159;-47
2021/06/20 06:29:01;;;;;;;7.15;6.28;;;;;;;;;;5053222;28;20183;-47
2021/06/20 06:31:27;;;;;;;7.75;5.78;;;;;;;;;;5048652;28;20179;-47
2021/06/20 06:33:53;;;;;;;8.15;6.78;;;;;;;;;;5049926;28;20256;-47
2021/06/20 06:36:19;;;;;;;6.82;6.05;;;;;;;;;;5053992;28;20246;-47
2021/06/20 06:38:45;;;;;;;7.35;6.13;;;;;;;;;;5054146;28;20187;-47
2021/06/20 06:41:12;;;;;;;9.45;6.30;;;;;;;;;;5053956;28;20538;-47
2021/06/20 06:43:38;;;;;;;9.68;5.55;;;;;;;;;;5054038;28;20294;-47
2021/06/20 06:46:04;;;;;;;6.90;6.18;;;;;;;;;;5052638;28;20213;-47
2021/06/20 06:48:30;;;;;;;7.07;5.90;;;;;;;;;;5053968;28;20184;-47
2021/06/20 06:50:56;;;;;;;10.20;6.13;;;;;;;;;;5053724;28;20183;-47
2021/06/20 06:53:22;;;;;;;8.73;5.90;;;;;;;;;;5054005;28;20171;-47
2021/06/20 06:55:48;;;;;;;6.93;6.32;;;;;;;;;;5053523;28;20225;-47
2021/06/20 06:58:14;;;;;;;10.68;6.60;;;;;;;;;;5053440;28;20187;-47
2021/06/20 07:00:40;;;;;;;11.65;6.57;;;;;;;;;;5052989;28;20202;-47
2021/06/20 07:03:06;;;;;;;8.52;6.40;;;;;;;;;;5053897;28;20531;-47
2021/06/20 07:05:32;;;;;;;8.10;6.40;;;;;;;;;;5054007;28;20175;-47
2021/06/20 07:07:58;;;;;;;10.85;5.90;;;;;;;;;;5053079;28;20183;-47
2021/06/20 07:10:24;;;;;;;10.15;6.82;;;;;;;;;;5053322;28;20909;-47
2021/06/20 07:12:50;;;;;;;12.30;7.03;;;;;;;;;;5053446;28;20171;-47
2021/06/20 07:15:17;;;;;;;9.30;6.65;;;;;;;;;;5053078;28;20451;-47
2021/06/20 07:17:43;;;;;;;11.73;6.15;;;;;;;;;;5053226;28;20427;-47
2021/06/20 07:20:14;;;;;;;9.77;6.00;;;;;;;;;;5051155;28;20289;-47
2021/06/20 07:22:40;;;;;;;15.05;6.65;;;;;;;;;;5052594;28;20176;-47
2021/06/20 07:25:06;;;;;;;13.68;6.85;;;;;;;;;;5053012;28;20203;-47
2021/06/20 07:27:35;;;;;;;11.82;6.95;;;;;;;;;;5052934;28;20226;-47
2021/06/20 07:30:05;;;;;;;12.63;6.75;;;;;;;;;;5051819;28;20195;-47
2021/06/20 07:32:31;;;;;;;12.65;7.45;;;;;;;;;;5056156;28;20187;-47
2021/06/20 07:34:57;;;;;;;7.78;6.65;;;;;;;;;;5056861;28;20186;-47
2021/06/20 07:37:23;;;;;;;10.20;6.78;;;;;;;;;;5050544;28;20252;-47
2021/06/20 07:39:49;;;;;;;8.02;6.53;;;;;;;;;;5056873;28;20183;-47
2021/06/20 07:42:15;;;;;;;10.18;6.65;;;;;;;;;;5055863;28;20190;-47
2021/06/20 07:44:41;;;;;;;15.93;7.13;;;;;;;;;;5056337;28;20602;-47
2021/06/20 07:47:07;;;;;;;11.93;6.70;;;;;;;;;;5047192;28;20598;-47
2021/06/20 07:49:33;;;;;;;21.42;8.23;;;;;;;;;;5056408;28;20179;-47
2021/06/20 07:51:59;;;;;;;15.93;7.15;;;;;;;;;;5055830;28;20453;-47
2021/06/20 07:54:25;;;;;;;15.48;7.28;;;;;;;;;;5055949;28;20201;-47
2021/06/20 07:56:51;;;;;;;18.83;7.60;;;;;;;;;;5055501;28;20191;-47
2021/06/20 07:59:18;;;;;;;13.18;7.03;;;;;;;;;;5055925;28;20183;-47
2021/06/20 08:01:44;;;;;;;14.15;6.82;;;;;;;;;;5056213;28;20179;-47
2021/06/20 08:04:10;;;;;;;18.92;7.38;;;;;;;;;;5053303;28;20206;-47
2021/06/20 08:06:36;;;;;;;14.05;7.65;;;;;;;;;;5055668;28;20449;-47
2021/06/20 08:09:02;;;;;;;20.25;7.47;;;;;;;;;;5056037;28;20341;-47
2021/06/20 08:11:28;;;;;;;16.67;7.35;;;;;;;;;;5055453;28;20181;-47
2021/06/20 08:13:57;;;;;;;20.48;7.45;;;;;;;;;;5055459;28;20187;-47
2021/06/20 08:16:23;;;;;;;16.88;6.50;;;;;;;;;;5055448;28;20566;-47
2021/06/20 08:18:49;;;;;;;19.83;7.13;;;;;;;;;;5056072;28;20186;-47
2021/06/20 08:21:15;;;;;;;16.60;6.88;;;;;;;;;;5055643;28;20779;-47
2021/06/20 08:23:41;;;;;;;19.40;7.13;;;;;;;;;;5055975;28;20210;-47
2021/06/20 08:26:07;;;;;;;17.85;7.28;;;;;;;;;;5053983;28;20190;-47
2021/06/20 08:28:33;;;;;;;22.88;7.72;;;;;;;;;;5054903;28;20183;-47
2021/06/20 08:31:00;;;;;;;15.82;7.15;;;;;;;;;;5055745;28;20682;-47
2021/06/20 08:33:26;;;;;;;15.95;7.50;;;;;;;;;;5055632;28;20171;-47
2021/06/20 08:35:52;;;;;;;19.30;7.72;;;;;;;;;;5055406;28;20215;-47
2021/06/20 08:38:18;;;;;;;14.95;7.00;;;;;;;;;;5055130;28;20242;-47
2021/06/20 08:40:44;;;;;;;16.77;6.93;;;;;;;;;;5055214;28;20186;-47
2021/06/20 08:43:10;;;;;;;19.92;7.35;;;;;;;;;;5054634;28;20313;-47
2021/06/20 08:45:37;;;;;;;16.02;6.35;;;;;;;;;;5055546;28;20270;-47
2021/06/20 08:48:04;;;;;;;16.25;7.00;;;;;;;;;;5044833;28;20554;-47
2021/06/20 08:50:30;;;;;;;18.33;6.75;;;;;;;;;;5055554;28;20187;-47
2021/06/20 08:52:56;;;;;;;16.30;6.90;;;;;;;;;;5055523;28;20182;-47
2021/06/20 08:55:23;;;;;;;24.63;6.72;;;;;;;;;;5055279;28;20183;-48
2021/06/20 08:57:51;;;;;;;16.67;6.35;;;;;;;;;;5050452;28;20237;-47
2021/06/20 09:00:18;;;;;;;20.30;6.63;;;;;;;;;;5055144;28;20178;-48
2021/06/20 09:02:55;;;;;;;16.70;6.18;;;;;;;;;;5055108;28;20206;-47
2021/06/20 09:05:21;;;;;;;19.85;6.78;;;;;;;;;;5054864;28;20187;-47
2021/06/20 09:07:47;;;;;;;20.17;6.55;;;;;;;;;;5054404;28;20205;-48
2021/06/20 09:10:15;;;;;;;16.83;6.50;;;;;;;;;;5055533;28;20191;-47
2021/06/20 09:12:49;;;;;;;17.50;6.38;;;;;;;;;;5035706;28;20268;-47
2021/06/20 09:15:16;;;;;;;19.33;6.28;;;;;;;;;;5047720;28;20175;-47
2021/06/20 09:17:47;;;;;;;18.88;6.20;;;;;;;;;;5054441;28;20187;-47
2021/06/20 09:20:13;;;;;;;15.20;6.15;;;;;;;;;;5054838;28;20191;-47
2021/06/20 09:22:39;;;;;;;15.57;6.07;;;;;;;;;;5054982;28;20209;-47
2021/06/20 09:25:07;;;;;;;17.15;6.32;;;;;;;;;;5054714;28;20649;-47
2021/06/20 09:27:33;;;;;;;15.48;6.18;;;;;;;;;;5054405;28;20175;-47
2021/06/20 09:30:11;;;;;;;19.45;6.85;;;;;;;;;;5054454;28;20183;-47
2021/06/20 09:32:40;;;;;;;16.85;6.20;;;;;;;;;;5055125;28;20183;-47
2021/06/20 09:35:07;;;;;;;19.02;7.22;;;;;;;;;;5054696;28;20187;-47
2021/06/20 09:37:33;;;;;;;13.85;6.90;;;;;;;;;;5054344;28;20535;-47
2021/06/20 09:40:10;;;;;;;16.27;6.85;;;;;;;;;;5044565;28;20238;-47
2021/06/20 09:42:40;;;;;;;14.63;6.05;;;;;;;;;;5038508;28;20167;-47
2021/06/20 09:45:07;;;;;;;17.08;6.32;;;;;;;;;;5054527;28;20230;-47
2021/06/20 09:47:38;;;;;;;17.55;6.72;;;;;;;;;;5040733;28;20606;-47
2021/06/20 09:50:04;;;;;;;17.05;6.28;;;;;;;;;;5035793;28;20242;-47
2021/06/20 09:52:31;;;;;;;13.18;5.80;;;;;;;;;;5054234;28;20219;-47
2021/06/20 09:55:01;;;;;;;19.30;6.78;;;;;;;;;;5053810;28;20176;-47
2021/06/20 09:57:27;;;;;;;16.10;6.43;;;;;;;;;;5057517;28;20210;-47
2021/06/20 09:59:56;;;;;;;12.05;5.80;;;;;;;;;;5054009;28;20214;-47
2021/06/20 10:02:26;;;;;;;14.07;6.10;;;;;;;;;;5042636;28;20187;-47
2021/06/20 10:04:52;;;;;;;20.70;7.35;;;;;;;;;;5053602;28;20211;-47
2021/06/20 10:07:20;;;;;;;17.40;6.15;;;;;;;;;;5053816;28;20584;-47
2021/06/20 10:09:46;;;;;;;16.13;6.38;;;;;;;;;;5054631;28;20243;-47
2021/06/20 10:12:12;;;;;;;17.40;6.30;;;;;;;;;;5038668;28;20184;-47
2021/06/20 10:14:42;;;;;;;16.33;6.85;;;;;;;;;;5043768;28;20189;-47
2021/06/20 10:17:10;;;;;;;16.48;6.65;;;;;;;;;;5053419;28;20202;-47
2021/06/20 10:19:41;;;;;;;15.55;6.00;;;;;;;;;;5043879;28;20191;-47
2021/06/20 10:22:10;;;;;;;13.43;5.65;;;;;;;;;;5044692;28;20187;-48
2021/06/20 10:24:53;;;;;;;16.02;6.07;;;;;;;;;;5054383;28;20191;-47
2021/06/20 10:27:49;;;;;;;14.25;5.88;;;;;;;;;;5053993;28;20178;-47
2021/06/20 10:30:22;;;;;;;15.55;6.15;;;;;;;;;;5036816;28;20233;-47
2021/06/20 10:32:49;;;;;;;16.58;6.05;;;;;;;;;;5053935;28;20447;-47
2021/06/20 10:35:19;;;;;;;18.13;5.68;;;;;;;;;;5053896;28;20183;-48
2021/06/20 10:37:45;;;;;;;16.30;6.15;;;;;;;;;;5053877;28;20190;-47
2021/06/20 10:40:22;;;;;;;17.42;5.88;;;;;;;;;;5053524;28;20214;-47
2021/06/20 10:42:49;;;;;;;14.40;5.93;;;;;;;;;;5053530;28;20171;-47
2021/06/20 10:45:26;;;;;;;19.23;6.43;;;;;;;;;;5053702;28;20202;-47
2021/06/20 10:47:52;;;;;;;12.75;5.88;;;;;;;;;;5053338;28;20232;-47
2021/06/20 10:50:18;;;;;;;15.57;5.95;;;;;;;;;;5053795;28;20179;-47
2021/06/20 10:52:55;;;;;;;13.98;6.30;;;;;;;;;;5053694;28;20175;-47
2021/06/20 10:55:21;;;;;;;13.85;5.88;;;;;;;;;;5038566;28;20190;-47
2021/06/20 10:57:56;;;;;;;17.58;6.28;;;;;;;;;;5034932;28;20546;-47
2021/06/20 11:00:29;;;;;;;16.88;5.82;;;;;;;;;;5050634;28;20609;-47
2021/06/20 11:03:06;;;;;;;16.75;6.40;;;;;;;;;;5037163;28;20453;-47
2021/06/20 11:05:42;;;;;;;13.40;5.60;;;;;;;;;;5051317;28;20273;-47
2021/06/20 11:08:10;;;;;;;17.25;6.35;;;;;;;;;;5057169;28;20239;-48
2021/06/20 11:10:37;;;;;;;14.20;6.60;;;;;;;;;;5054938;28;20170;-47
2021/06/20 11:13:03;;;;;;;14.40;6.00;;;;;;;;;;5047126;28;20175;-47
2021/06/20 11:15:29;;;;;;;18.17;5.93;;;;;;;;;;5054501;28;20182;-47
2021/06/20 11:18:09;;;;;;;13.10;5.28;;;;;;;;;;5056757;28;20167;-48
2021/06/20 11:20:36;;;;;;;15.77;5.20;;;;;;;;;;5057412;28;20476;-48
2021/06/20 11:23:03;;;;;;;11.93;5.25;;;;;;;;;;5057199;28;20171;-47
2021/06/20 11:25:29;;;;;;;13.27;4.85;;;;;;;;;;5057213;28;20504;-48
2021/06/20 11:27:55;;;;;;;15.20;5.60;;;;;;;;;;5055219;28;20246;-47
2021/06/20 11:30:22;;;;;;;11.57;5.20;;;;;;;;;;5053753;28;20167;-47
2021/06/20 11:32:48;;;;;;;10.70;4.95;;;;;;;;;;5057274;28;20190;-47
2021/06/20 11:35:19;;;;;;;12.23;5.63;;;;;;;;;;5056762;28;20175;-48
2021/06/20 11:37:47;;;;;;;11.90;5.43;;;;;;;;;;5056328;28;20190;-48
2021/06/20 11:40:16;;;;;;;11.43;5.65;;;;;;;;;;5056760;28;20589;-47
2021/06/20 11:42:43;;;;;;;14.20;5.95;;;;;;;;;;5057177;28;20431;-48
2021/06/20 11:45:09;;;;;;;14.00;5.63;;;;;;;;;;5056604;28;20298;-48
2021/06/20 11:47:37;;;;;;;14.40;6.30;;;;;;;;;;5042748;28;20172;-48
2021/06/20 11:50:10;;;;;;;15.35;5.30;;;;;;;;;;5037664;28;20199;-47
2021/06/20 11:52:36;;;;;;;15.13;5.70;;;;;;;;;;5056501;28;20171;-47
2021/06/20 11:55:31;;;;;;;13.60;5.78;;;;;;;;;;5056793;28;20229;-48
2021/06/20 11:58:02;;;;;;;16.05;5.95;;;;;;;;;;5043561;28;20273;-47
2021/06/20 12:00:28;;;;;;;16.75;5.80;;;;;;;;;;5056519;28;20198;-47
2021/06/20 12:03:07;;;;;;;16.08;5.78;;;;;;;;;;5056635;28;20179;-47
2021/06/20 12:05:34;;;;;;;11.93;5.38;;;;;;;;;;5052427;28;20253;-47
2021/06/20 12:08:01;;;;;;;13.10;5.68;;;;;;;;;;5055638;28;20178;-48
2021/06/20 12:10:27;;;;;;;18.10;5.65;;;;;;;;;;5055789;28;20179;-47
2021/06/20 12:13:03;;;;;;;15.23;5.70;;;;;;;;;;5055967;28;20236;-47
2021/06/20 12:15:30;;;;;;;14.13;5.70;;;;;;;;;;5055834;28;20183;-48
2021/06/20 12:17:56;;;;;;;14.23;6.10;;;;;;;;;;5054841;28;20183;-48
2021/06/20 12:20:32;;;;;;;13.35;5.75;;;;;;;;;;5056514;28;20323;-47
2021/06/20 12:22:59;;;;;;;16.17;6.55;;;;;;;;;;5056255;28;20178;-48
2021/06/20 12:25:25;;;;;;;18.13;5.38;;;;;;;;;;5056054;28;20237;-47
2021/06/20 12:27:51;;;;;;;11.43;5.82;;;;;;;;;;5052088;28;20191;-47
2021/06/20 12:30:22;;;;;;;10.45;5.80;;;;;;;;;;5048069;28;20182;-47
2021/06/20 12:32:50;;;;;;;10.10;5.57;;;;;;;;;;5054706;28;20444;-47
2021/06/20 12:35:26;;;;;;;13.15;5.60;;;;;;;;;;5056008;28;20189;-47
2021/06/20 12:37:54;;;;;;;14.18;5.65;;;;;;;;;;5055631;28;20210;-48
2021/06/20 12:40:21;;;;;;;12.50;6.03;;;;;;;;;;5055658;28;20202;-47
2021/06/20 12:42:51;;;;;;;14.50;5.90;;;;;;;;;;5055801;28;20171;-47
2021/06/20 12:45:22;;;;;;;14.48;5.55;;;;;;;;;;5055553;28;20206;-47
2021/06/20 12:47:48;;;;;;;12.43;5.82;;;;;;;;;;5055306;28;20198;-47
2021/06/20 12:50:15;;;;;;;10.35;5.25;;;;;;;;;;5053374;28;20194;-47
2021/06/20 12:52:43;;;;;;;15.27;5.25;;;;;;;;;;5051474;28;20179;-47
2021/06/20 12:55:15;;;;;;;10.75;5.18;;;;;;;;;;5055894;28;20544;-47
2021/06/20 12:57:49;;;;;;;9.43;5.07;;;;;;;;;;5054996;28;20533;-47
2021/06/20 13:00:15;;;;;;;15.60;5.30;;;;;;;;;;5055161;28;20179;-48
2021/06/20 13:02:42;;;;;;;11.70;5.13;;;;;;;;;;5055717;28;20175;-47
2021/06/20 13:05:08;;;;;;;9.85;5.15;;;;;;;;;;5055063;28;20234;-48
2021/06/20 13:07:35;;;;;;;14.00;5.35;;;;;;;;;;5054878;28;20500;-48
2021/06/20 13:10:02;;;;;;;9.95;5.05;;;;;;;;;;5055542;28;20172;-48
2021/06/20 13:12:28;;;;;;;10.48;5.07;;;;;;;;;;5049907;28;20577;-48
2021/06/20 13:14:54;;;;;;;9.80;5.00;;;;;;;;;;5054913;28;20273;-47
2021/06/20 13:17:20;;;;;;;10.43;5.28;;;;;;;;;;5054838;28;20163;-48
2021/06/20 13:19:46;;;;;;;13.13;5.35;;;;;;;;;;5054938;28;20493;-48
2021/06/20 13:22:12;;;;;;;10.85;4.75;;;;;;;;;;5055330;28;20274;-47
2021/06/20 13:24:38;;;;;;;7.78;4.43;;;;;;;;;;5055215;28;20194;-47
2021/06/20 13:27:04;;;;;;;8.32;4.97;;;;;;;;;;5054950;28;20178;-48
2021/06/20 13:29:30;;;;;;;17.40;5.10;;;;;;;;;;5054482;28;20175;-47
2021/06/20 13:31:56;;;;;;;11.13;5.43;;;;;;;;;;5054709;28;20599;-47
2021/06/20 13:34:22;;;;;;;10.25;4.68;;;;;;;;;;5054277;28;20258;-48
2021/06/20 13:36:48;;;;;;;14.75;5.40;;;;;;;;;;5054372;28;20191;-48
2021/06/20 13:39:14;;;;;;;12.70;5.13;;;;;;;;;;5054717;28;20255;-47
2021/06/20 13:41:40;;;;;;;9.50;4.60;;;;;;;;;;5054571;28;20484;-48
2021/06/20 13:44:06;;;;;;;11.80;5.15;;;;;;;;;;5054615;28;20227;-48
2021/06/20 13:46:33;;;;;;;8.82;5.15;;;;;;;;;;5053887;28;20179;-48
2021/06/20 13:48:59;;;;;;;9.20;5.05;;;;;;;;;;5054345;28;20513;-49
2021/06/20 13:51:25;;;;;;;12.07;5.15;;;;;;;;;;5054644;28;20187;-48
2021/06/20 13:53:53;;;;;;;10.50;5.07;;;;;;;;;;5054325;28;20252;-47
2021/06/20 13:56:19;;;;;;;11.82;4.72;;;;;;;;;;5054043;28;20250;-47
2021/06/20 13:58:45;;;;;;;13.50;4.80;;;;;;;;;;5054344;28;20479;-48
2021/06/20 14:01:11;;;;;;;11.65;5.50;;;;;;;;;;5054086;28;20182;-48
2021/06/20 14:03:37;;;;;;;10.50;5.13;;;;;;;;;;5053736;28;20528;-48
2021/06/20 14:06:03;;;;;;;15.05;5.50;;;;;;;;;;5053648;28;20203;-47
2021/06/20 14:08:30;;;;;;;11.40;5.65;;;;;;;;;;5054012;28;20622;-48
2021/06/20 14:10:56;;;;;;;10.38;4.75;;;;;;;;;;5054072;28;20183;-47
2021/06/20 14:13:22;;;;;;;14.35;5.50;;;;;;;;;;5054559;28;20167;-48
2021/06/20 14:15:49;;;;;;;13.57;5.05;;;;;;;;;;5053752;28;20244;-49
2021/06/20 14:18:15;;;;;;;10.63;5.57;;;;;;;;;;5038376;28;20278;-47
2021/06/20 14:20:41;;;;;;;9.50;4.85;;;;;;;;;;5054479;28;20249;-48
2021/06/20 14:23:07;;;;;;;12.60;5.30;;;;;;;;;;5054039;28;20175;-47
2021/06/20 14:25:33;;;;;;;10.65;4.85;;;;;;;;;;5054421;28;20555;-46
2021/06/20 14:27:59;;;;;;;8.65;5.18;;;;;;;;;;5053560;28;20197;-47
2021/06/20 14:30:25;;;;;;;13.43;5.05;;;;;;;;;;5053731;28;20522;-47
2021/06/20 14:32:51;;;;;;;11.23;5.05;;;;;;;;;;5053800;28;20189;-47
2021/06/20 14:35:17;;;;;;;11.63;4.72;;;;;;;;;;5053732;28;20194;-48
2021/06/20 14:37:43;;;;;;;10.40;5.35;;;;;;;;;;5053374;28;20182;-48